Time;durP1;ratioP1;P1;durP2;ratioP2;P2;SDS_P1;SDS_P2;PMS_P1;PMS_P2;Temp;Humidity;BMP_temperature;BMP_pressure;BME280_temperature;BME280_humidity;BME280_pressure;Samples;Min_cycle;Max_cycle;Signal;HPM_P1;HPM_P2
2021/11/22 00:00:10;;;;;;;19.23;11.63;;;5.50;99.90;;;;;;4970690;28;20053;-78
2021/11/22 06:01:07;;;;;;;23.10;11.63;;;5.70;99.90;;;;;;5636745;23;20085;-80
2021/11/22 06:03:35;;;;;;;24.60;11.93;;;5.60;99.90;;;;;;4973208;28;20715;-79
2021/11/22 06:06:03;;;;;;;24.73;12.48;;;5.70;99.90;;;;;;4973469;28;20126;-80
2021/11/22 06:08:30;;;;;;;23.58;13.23;;;5.70;99.90;;;;;;4973669;28;20172;-80
2021/11/22 06:10:58;;;;;;;23.80;12.20;;;5.70;99.90;;;;;;4976752;28;20085;-80
2021/11/22 06:13:25;;;;;;;23.33;12.07;;;5.70;99.90;;;;;;4976742;28;20527;-80
2021/11/22 06:15:52;;;;;;;22.40;11.90;;;5.70;99.90;;;;;;4976524;28;20085;-80
2021/11/22 06:18:21;;;;;;;23.00;12.32;;;5.70;99.90;;;;;;4976888;28;20078;-78
2021/11/22 06:20:48;;;;;;;24.00;11.88;;;5.70;99.90;;;;;;4976673;28;20050;-80
2021/11/22 06:23:15;;;;;;;22.95;12.10;;;5.70;99.90;;;;;;4976480;28;20141;-80
2021/11/22 06:25:43;;;;;;;22.48;12.40;;;5.70;99.90;;;;;;4976395;28;20054;-80
2021/11/22 06:28:10;;;;;;;23.83;12.02;;;5.70;99.90;;;;;;4976356;28;20051;-78
2021/11/22 06:30:37;;;;;;;22.42;11.48;;;5.70;99.90;;;;;;4976299;28;20050;-78
2021/11/22 06:33:05;;;;;;;22.80;11.80;;;5.70;99.90;;;;;;4976555;28;20141;-78
2021/11/22 06:35:34;;;;;;;22.42;12.68;;;5.70;99.90;;;;;;4976706;28;20145;-78
2021/11/22 06:38:02;;;;;;;23.05;12.35;;;5.70;99.90;;;;;;4975702;28;20137;-79
2021/11/22 06:40:29;;;;;;;24.05;12.18;;;5.70;99.90;;;;;;4976231;28;20500;-81
2021/11/22 06:42:56;;;;;;;23.83;12.05;;;5.70;99.90;;;;;;4977092;28;20468;-78
2021/11/22 06:45:24;;;;;;;23.33;12.77;;;5.70;99.90;;;;;;4977086;28;20062;-79
2021/11/22 06:47:51;;;;;;;22.23;12.10;;;5.70;99.90;;;;;;4976080;28;20071;-78
2021/11/22 06:50:19;;;;;;;22.30;11.40;;;5.70;99.90;;;;;;4975504;28;20239;-79
2021/11/22 06:52:48;;;;;;;23.30;12.25;;;5.70;99.90;;;;;;4975947;28;20061;-79
2021/11/22 06:55:16;;;;;;;21.15;11.82;;;5.70;99.90;;;;;;4975756;28;20488;-79
2021/11/22 06:57:43;;;;;;;23.98;12.30;;;5.70;99.90;;;;;;4975813;28;20086;-78
2021/11/22 07:00:15;;;;;;;21.45;11.98;;;5.70;99.90;;;;;;4975934;28;20129;-78
2021/11/22 07:02:42;;;;;;;22.85;11.38;;;5.80;99.90;;;;;;4975481;28;20526;-78
2021/11/22 07:05:10;;;;;;;23.48;11.98;;;5.80;99.90;;;;;;4975503;28;20050;-78
2021/11/22 07:07:38;;;;;;;23.15;11.93;;;5.80;99.90;;;;;;4975296;28;20109;-79
2021/11/22 07:10:08;;;;;;;23.10;11.93;;;5.80;99.90;;;;;;4975471;28;20050;-78
2021/11/22 07:12:35;;;;;;;21.90;11.35;;;5.80;99.90;;;;;;4975797;28;20150;-77
2021/11/22 07:15:02;;;;;;;22.38;11.65;;;5.80;99.90;;;;;;4975987;28;20078;-77
2021/11/22 07:17:30;;;;;;;21.27;11.23;;;5.80;99.90;;;;;;4976156;28;20055;-77
2021/11/22 07:19:57;;;;;;;21.58;11.10;;;5.80;99.90;;;;;;4971974;28;20070;-77
2021/11/22 07:22:25;;;;;;;20.33;11.07;;;5.80;99.90;;;;;;4975494;28;20130;-78
2021/11/22 07:24:52;;;;;;;21.98;11.95;;;5.80;99.90;;;;;;4975311;28;20126;-79
2021/11/22 07:27:24;;;;;;;21.20;11.50;;;5.80;99.90;;;;;;4975309;28;20129;-79
2021/11/22 07:29:52;;;;;;;22.50;11.20;;;5.80;99.90;;;;;;4975368;28;20090;-78
2021/11/22 07:32:19;;;;;;;24.63;12.57;;;5.80;99.90;;;;;;4975163;28;20149;-78
2021/11/22 07:34:46;;;;;;;22.77;11.25;;;5.80;99.90;;;;;;4974277;28;20158;-78
2021/11/22 07:37:13;;;;;;;20.23;11.05;;;5.80;99.90;;;;;;4975088;28;20171;-77
2021/11/22 07:39:40;;;;;;;21.30;11.25;;;5.80;99.90;;;;;;4975536;28;20145;-79
2021/11/22 07:42:08;;;;;;;21.77;11.25;;;5.90;99.90;;;;;;4974742;28;20135;-76
2021/11/22 07:44:36;;;;;;;21.27;11.30;;;5.90;99.90;;;;;;4975522;28;20415;-77
2021/11/22 07:47:04;;;;;;;23.83;11.80;;;5.90;99.90;;;;;;4974754;28;20073;-78
2021/11/22 07:49:33;;;;;;;19.17;10.57;;;5.90;99.90;;;;;;4974477;28;20086;-80
2021/11/22 07:52:00;;;;;;;19.15;10.10;;;5.90;99.90;;;;;;4974668;28;20130;-76
2021/11/22 07:54:27;;;;;;;17.23;9.30;;;6.00;99.90;;;;;;4974833;28;20142;-78
2021/11/22 07:56:55;;;;;;;17.15;8.90;;;6.00;99.90;;;;;;4974706;28;20066;-77
2021/11/22 07:59:23;;;;;;;18.73;10.05;;;6.20;99.90;;;;;;4974360;28;20106;-77
2021/11/22 08:01:51;;;;;;;23.38;12.77;;;6.30;99.90;;;;;;4974359;28;20479;-79
2021/11/22 08:04:19;;;;;;;21.08;11.32;;;6.30;99.90;;;;;;4974501;28;20039;-77
2021/11/22 08:06:48;;;;;;;21.52;11.85;;;6.40;99.90;;;;;;4973742;28;20051;-78
2021/11/22 08:09:24;;;;;;;20.63;11.30;;;6.40;99.90;;;;;;4974050;28;20590;-78
2021/11/22 08:12:14;;;;;;;21.27;11.45;;;6.30;99.90;;;;;;4974676;28;20499;-76
2021/11/22 08:14:41;;;;;;;23.90;11.70;;;6.30;99.90;;;;;;4974904;28;20051;-78
2021/11/22 08:17:11;;;;;;;20.98;11.55;;;6.30;99.90;;;;;;4974172;28;20046;-77
2021/11/22 08:19:39;;;;;;;22.33;11.88;;;6.30;99.90;;;;;;4973665;28;20063;-77
2021/11/22 08:22:07;;;;;;;27.35;13.73;;;6.30;99.90;;;;;;4974094;28;20057;-77
2021/11/22 08:24:34;;;;;;;25.63;12.73;;;6.20;99.90;;;;;;4974372;28;20411;-79
2021/11/22 08:27:01;;;;;;;24.65;13.48;;;6.20;99.90;;;;;;4974505;28;20126;-77
2021/11/22 08:29:28;;;;;;;25.42;13.35;;;6.20;99.90;;;;;;4974357;28;20060;-80
2021/11/22 08:31:55;;;;;;;24.90;13.57;;;6.20;99.90;;;;;;4975219;28;20762;-78
2021/11/22 08:34:25;;;;;;;24.58;13.18;;;6.20;99.90;;;;;;4973234;28;20138;-78
2021/11/22 08:36:52;;;;;;;24.58;13.13;;;6.20;99.90;;;;;;4974417;28;20042;-78
2021/11/22 08:39:19;;;;;;;22.10;12.25;;;6.20;99.90;;;;;;4973620;28;20499;-77
2021/11/22 08:41:46;;;;;;;21.92;11.75;;;6.20;99.90;;;;;;4974176;28;20090;-77
2021/11/22 08:44:13;;;;;;;21.15;11.38;;;6.20;99.90;;;;;;4973527;28;20121;-77
2021/11/22 08:46:41;;;;;;;22.85;11.48;;;6.20;99.90;;;;;;4973715;28;20047;-77
2021/11/22 08:49:08;;;;;;;22.33;11.82;;;6.20;99.90;;;;;;4973660;28;20054;-79
2021/11/22 08:51:37;;;;;;;22.33;11.23;;;6.20;99.90;;;;;;4973436;28;20157;-78
2021/11/22 08:54:04;;;;;;;21.08;11.80;;;6.20;99.90;;;;;;4974245;28;20130;-77
2021/11/22 08:56:31;;;;;;;22.27;11.65;;;6.20;99.90;;;;;;4973684;28;20055;-78
2021/11/22 08:58:59;;;;;;;23.90;11.70;;;6.20;99.90;;;;;;4973546;28;20058;-78
2021/11/22 09:01:27;;;;;;;21.23;10.73;;;6.20;99.90;;;;;;4973256;28;20133;-79
2021/11/22 09:03:55;;;;;;;22.15;11.30;;;6.20;99.90;;;;;;4973045;28;20057;-78
2021/11/22 09:06:24;;;;;;;20.95;10.75;;;6.20;99.90;;;;;;4973085;28;20075;-79
2021/11/22 09:08:52;;;;;;;21.67;11.27;;;6.20;99.90;;;;;;4974608;28;20055;-77
2021/11/22 09:11:19;;;;;;;22.38;11.27;;;6.20;99.90;;;;;;4973957;28;20049;-78
2021/11/22 09:13:46;;;;;;;23.48;10.75;;;6.20;99.90;;;;;;4974222;28;20129;-78
2021/11/22 09:16:15;;;;;;;20.25;11.20;;;6.20;99.90;;;;;;4972322;28;20055;-78
2021/11/22 09:18:42;;;;;;;21.90;11.68;;;6.20;99.90;;;;;;4973457;28;20066;-78
2021/11/22 09:21:09;;;;;;;22.90;11.80;;;6.20;99.90;;;;;;4973931;28;20491;-77
2021/11/22 09:23:36;;;;;;;24.58;12.57;;;6.20;99.90;;;;;;4974416;28;20575;-76
2021/11/22 09:26:04;;;;;;;20.75;11.38;;;6.20;99.90;;;;;;4974080;28;20138;-76
2021/11/22 09:28:33;;;;;;;24.20;11.80;;;6.20;99.90;;;;;;4973547;28;20488;-76
2021/11/22 09:31:01;;;;;;;20.17;11.00;;;6.20;99.90;;;;;;4973853;28;20046;-77
2021/11/22 09:33:28;;;;;;;23.65;11.15;;;6.20;99.90;;;;;;4973205;28;20484;-77
2021/11/22 09:35:55;;;;;;;21.33;11.30;;;6.30;99.90;;;;;;4973741;28;20054;-76
2021/11/22 09:38:22;;;;;;;23.70;11.60;;;6.30;99.90;;;;;;4974834;28;20047;-78
2021/11/22 09:40:49;;;;;;;22.15;11.02;;;6.30;99.90;;;;;;4974748;28;20057;-77
2021/11/22 09:43:18;;;;;;;21.65;11.38;;;6.30;99.90;;;;;;4973284;28;20138;-78
2021/11/22 09:45:46;;;;;;;23.05;11.30;;;6.30;99.90;;;;;;4977428;28;20145;-78
2021/11/22 09:48:13;;;;;;;21.33;11.13;;;6.30;99.90;;;;;;4976909;28;20053;-78
2021/11/22 09:50:41;;;;;;;20.95;10.73;;;6.40;99.90;;;;;;4978015;28;20061;-77
2021/11/22 09:53:08;;;;;;;23.73;12.10;;;6.40;99.90;;;;;;4977475;28;20579;-77
2021/11/22 09:55:36;;;;;;;23.67;13.18;;;6.40;99.90;;;;;;4977076;28;20055;-77
2021/11/22 09:58:08;;;;;;;24.35;12.30;;;6.40;99.90;;;;;;4977627;28;20134;-77
2021/11/22 10:00:40;;;;;;;23.33;11.63;;;6.40;99.90;;;;;;4976732;28;20405;-78
2021/11/22 10:03:11;;;;;;;23.35;12.20;;;6.40;99.90;;;;;;4976651;28;20194;-78
2021/11/22 10:05:40;;;;;;;23.45;11.88;;;6.50;99.90;;;;;;4976446;28;20129;-77
2021/11/22 10:08:10;;;;;;;20.20;10.90;;;6.50;99.90;;;;;;4976647;28;20058;-77
2021/11/22 10:10:41;;;;;;;20.65;11.02;;;6.50;99.90;;;;;;4976624;28;20145;-77
2021/11/22 10:13:26;;;;;;;20.88;11.10;;;6.50;99.90;;;;;;4975987;28;20073;-78
2021/11/22 10:15:58;;;;;;;21.52;10.85;;;6.60;99.90;;;;;;4976543;28;20046;-78
2021/11/22 10:18:28;;;;;;;22.40;11.85;;;6.60;99.90;;;;;;4976858;28;20130;-78
2021/11/22 10:20:57;;;;;;;23.40;11.55;;;6.60;99.90;;;;;;4979051;28;20478;-77
2021/11/22 10:23:27;;;;;;;20.25;10.43;;;6.60;99.90;;;;;;4974851;28;20407;-79
2021/11/22 10:25:57;;;;;;;18.95;11.02;;;6.60;99.90;;;;;;4976460;28;20423;-77
2021/11/22 10:28:29;;;;;;;20.77;10.43;;;6.60;99.90;;;;;;4976241;28;20125;-79
2021/11/22 10:31:01;;;;;;;18.77;10.85;;;6.60;99.90;;;;;;4976321;28;20086;-76
2021/11/22 10:33:31;;;;;;;21.65;10.52;;;6.60;99.90;;;;;;4976344;28;20065;-77
2021/11/22 10:36:01;;;;;;;20.25;10.43;;;6.60;99.90;;;;;;4976018;28;20137;-77
2021/11/22 10:38:32;;;;;;;19.95;10.57;;;6.70;99.90;;;;;;4976624;28;20118;-78
2021/11/22 10:41:01;;;;;;;21.50;11.05;;;6.70;99.90;;;;;;4975943;28;20064;-78
2021/11/22 10:43:35;;;;;;;19.10;10.13;;;6.70;99.90;;;;;;4975868;28;20054;-79
2021/11/22 10:46:07;;;;;;;18.02;10.05;;;6.70;99.90;;;;;;4974717;28;20489;-77
2021/11/22 10:48:34;;;;;;;19.52;10.65;;;6.70;99.90;;;;;;4976530;28;20573;-77
2021/11/22 10:51:16;;;;;;;19.00;10.20;;;6.70;99.90;;;;;;4976593;28;20126;-77
2021/11/22 10:53:48;;;;;;;19.00;10.52;;;6.80;99.90;;;;;;4976294;28;20051;-78
2021/11/22 10:56:19;;;;;;;17.63;10.00;;;6.80;99.90;;;;;;4974805;28;20071;-77
2021/11/22 10:58:54;;;;;;;17.08;9.60;;;6.80;99.90;;;;;;4975733;28;20070;-78
2021/11/22 11:01:36;;;;;;;19.23;10.02;;;6.80;99.90;;;;;;4956235;28;20146;-78
2021/11/22 11:04:08;;;;;;;18.10;9.80;;;6.80;99.90;;;;;;4956642;29;20122;-79
2021/11/22 11:06:43;;;;;;;19.52;10.20;;;6.80;99.90;;;;;;4956374;29;20548;-78
2021/11/22 11:09:16;;;;;;;16.85;9.90;;;6.90;99.90;;;;;;4955341;29;20141;-79
2021/11/22 11:11:43;;;;;;;15.45;9.27;;;6.90;99.90;;;;;;4956601;29;20428;-77
2021/11/22 11:14:13;;;;;;;14.95;9.00;;;6.90;99.90;;;;;;4961732;28;20078;-78
2021/11/22 11:16:43;;;;;;;16.90;8.63;;;6.90;99.90;;;;;;4976157;28;20111;-77
2021/11/22 11:19:13;;;;;;;15.15;8.93;;;6.90;99.90;;;;;;4975475;28;20050;-77
2021/11/22 11:21:44;;;;;;;15.65;8.13;;;6.90;99.90;;;;;;4975849;28;20150;-78
2021/11/22 11:24:13;;;;;;;16.13;8.57;;;6.90;99.90;;;;;;4974590;28;20408;-79
2021/11/22 11:26:43;;;;;;;18.05;8.88;;;6.90;99.90;;;;;;4976023;28;20047;-78
2021/11/22 11:29:11;;;;;;;13.45;7.82;;;6.90;99.90;;;;;;4975903;28;20496;-77
2021/11/22 11:31:39;;;;;;;14.52;8.38;;;6.90;99.90;;;;;;4975893;28;20467;-78
2021/11/22 11:34:11;;;;;;;29.25;14.18;;;6.90;99.90;;;;;;4974913;28;20506;-81
2021/11/22 11:37:05;;;;;;;20.50;10.80;;;6.90;99.90;;;;;;4975817;28;20133;-77
2021/11/22 11:40:14;;;;;;;16.85;9.20;;;6.90;99.90;;;;;;4975719;28;20134;-78
2021/11/22 11:43:09;;;;;;;15.65;8.52;;;6.90;99.90;;;;;;4973564;28;20547;-76
2021/11/22 11:45:43;;;;;;;15.95;8.43;;;6.90;99.90;;;;;;4955789;29;20492;-79
2021/11/22 11:48:22;;;;;;;13.85;7.45;;;6.90;99.90;;;;;;4955461;29;20051;-80
2021/11/22 11:50:51;;;;;;;13.40;6.90;;;6.80;99.90;;;;;;4955752;29;20070;-81
2021/11/22 11:53:20;;;;;;;11.88;6.20;;;6.80;99.90;;;;;;4954918;29;20621;-80
2021/11/22 11:56:09;;;;;;;11.43;6.05;;;6.80;99.90;;;;;;4953734;28;20511;-80
2021/11/22 11:58:36;;;;;;;9.93;4.95;;;6.80;99.90;;;;;;4964198;28;20651;-80
2021/11/22 12:01:06;;;;;;;8.60;4.90;;;6.80;99.90;;;;;;4971463;28;20145;-80
2021/11/22 12:04:07;;;;;;;8.88;5.15;;;6.80;99.90;;;;;;4973334;28;20039;-81
2021/11/22 12:06:49;;;;;;;8.98;4.57;;;6.90;99.90;;;;;;4975910;28;20151;-80
2021/11/22 12:09:39;;;;;;;11.40;5.57;;;6.90;99.90;;;;;;4972602;28;20504;-80
2021/11/22 12:12:33;;;;;;;9.77;5.25;;;6.90;99.90;;;;;;4968049;28;20082;-82
2021/11/22 12:15:02;;;;;;;7.90;4.95;;;6.90;99.90;;;;;;4972554;28;20058;-80
2021/11/22 12:18:05;;;;;;;10.50;4.90;;;6.90;99.90;;;;;;4972165;28;20050;-82
2021/11/22 12:21:03;;;;;;;7.35;4.18;;;6.90;99.90;;;;;;4971017;28;20047;-79
2021/11/22 12:23:47;;;;;;;8.00;4.40;;;6.90;99.90;;;;;;4971140;28;20142;-80
2021/11/22 12:26:27;;;;;;;7.43;4.43;;;6.90;99.90;;;;;;4971045;28;20047;-79
2021/11/22 12:28:55;;;;;;;8.43;4.40;;;6.90;99.90;;;;;;4971378;28;20055;-80
2021/11/22 12:31:44;;;;;;;7.40;4.10;;;6.90;99.90;;;;;;4971086;28;20089;-82
2021/11/22 12:34:13;;;;;;;7.60;3.92;;;7.00;99.90;;;;;;4972022;28;20467;-82
2021/11/22 12:36:44;;;;;;;7.97;4.03;;;7.00;99.90;;;;;;4970109;28;20571;-80
2021/11/22 12:39:21;;;;;;;9.48;4.47;;;7.00;99.90;;;;;;4971682;28;20085;-81
2021/11/22 12:41:50;;;;;;;6.88;3.95;;;7.00;99.90;;;;;;4972076;28;20082;-81
2021/11/22 12:44:20;;;;;;;7.28;3.63;;;7.00;99.90;;;;;;4971182;28;20053;-81
2021/11/22 12:46:52;;;;;;;7.80;4.20;;;7.00;99.90;;;;;;4970874;28;20056;-80
2021/11/22 12:49:40;;;;;;;7.60;4.15;;;7.00;99.90;;;;;;4971752;28;20069;-81
2021/11/22 12:52:21;;;;;;;8.50;4.03;;;7.10;99.90;;;;;;4971579;28;20410;-81
2021/11/22 12:55:03;;;;;;;8.95;4.40;;;7.10;99.90;;;;;;4970782;28;20411;-80
2021/11/22 12:57:35;;;;;;;12.88;6.15;;;7.10;99.90;;;;;;4971218;28;20085;-81
2021/11/22 13:00:32;;;;;;;9.23;4.68;;;7.10;99.90;;;;;;4970792;28;20134;-81
2021/11/22 13:03:09;;;;;;;7.07;4.00;;;7.20;99.90;;;;;;4970996;28;20050;-79
2021/11/22 13:06:03;;;;;;;6.63;3.83;;;7.20;99.90;;;;;;4971486;28;20061;-80
2021/11/22 13:08:50;;;;;;;7.85;3.97;;;7.20;99.90;;;;;;4971264;28;20471;-81
2021/11/22 13:11:31;;;;;;;8.10;4.28;;;7.30;99.90;;;;;;4972122;28;20412;-81
2021/11/22 13:14:07;;;;;;;9.77;4.60;;;7.30;99.90;;;;;;4973228;28;20499;-82
2021/11/22 13:16:35;;;;;;;9.77;4.13;;;7.30;99.90;;;;;;4974151;28;20043;-81
2021/11/22 13:19:05;;;;;;;7.22;4.45;;;7.30;99.90;;;;;;4970651;28;20055;-80
2021/11/22 13:21:36;;;;;;;9.13;4.57;;;7.30;99.90;;;;;;4971311;28;20414;-81
2021/11/22 13:24:08;;;;;;;6.50;4.00;;;7.30;99.90;;;;;;4971084;28;20552;-80
2021/11/22 13:26:38;;;;;;;8.90;4.30;;;7.30;99.90;;;;;;4970111;28;20500;-80
2021/11/22 13:29:09;;;;;;;7.00;3.90;;;7.30;99.90;;;;;;4971197;28;20051;-82
2021/11/22 13:31:41;;;;;;;7.13;4.18;;;7.30;99.90;;;;;;4971239;28;20061;-80
2021/11/22 13:34:10;;;;;;;7.97;4.22;;;7.30;99.90;;;;;;4971461;28;20125;-81
2021/11/22 13:36:40;;;;;;;6.38;3.90;;;7.30;99.90;;;;;;4971639;28;20090;-81
2021/11/22 13:39:27;;;;;;;7.40;3.90;;;7.20;99.90;;;;;;4971582;28;20082;-81
2021/11/22 13:42:00;;;;;;;6.70;3.70;;;7.20;99.90;;;;;;4971203;28;20047;-80
2021/11/22 13:44:30;;;;;;;6.25;3.75;;;7.20;99.90;;;;;;4971376;28;20051;-80
2021/11/22 13:47:00;;;;;;;6.05;3.60;;;7.20;99.90;;;;;;4970985;28;20089;-81
2021/11/22 13:49:28;;;;;;;6.82;4.00;;;7.10;99.90;;;;;;4971526;28;20114;-81
2021/11/22 13:51:55;;;;;;;5.75;3.63;;;7.10;99.90;;;;;;4974558;28;20134;-79
2021/11/22 13:54:27;;;;;;;6.68;3.90;;;7.10;99.90;;;;;;4970464;28;20162;-80
2021/11/22 13:57:00;;;;;;;6.70;3.92;;;7.10;99.90;;;;;;4972508;28;20047;-81
2021/11/22 13:59:31;;;;;;;8.77;4.40;;;7.00;99.90;;;;;;4971903;28;20051;-80
2021/11/22 14:02:02;;;;;;;7.25;3.80;;;7.00;99.90;;;;;;4971514;28;20102;-80
2021/11/22 14:04:33;;;;;;;6.32;4.00;;;7.00;99.90;;;;;;4972622;28;20571;-78
2021/11/22 14:07:03;;;;;;;8.95;3.80;;;6.90;99.90;;;;;;4971340;28;20078;-81
2021/11/22 14:09:30;;;;;;;6.78;4.03;;;7.00;99.90;;;;;;4970784;28;20046;-80
2021/11/22 14:11:59;;;;;;;6.47;4.00;;;6.90;99.90;;;;;;4970554;28;20070;-78
2021/11/22 14:14:29;;;;;;;7.95;4.75;;;6.90;99.90;;;;;;4970617;28;20110;-79
2021/11/22 14:16:58;;;;;;;8.40;4.15;;;6.90;99.90;;;;;;4970368;28;20077;-80
2021/11/22 14:19:27;;;;;;;7.03;3.97;;;6.90;99.90;;;;;;4970979;28;20054;-81
2021/11/22 14:21:56;;;;;;;7.40;3.85;;;6.90;99.90;;;;;;4970944;28;20485;-81
2021/11/22 14:24:28;;;;;;;6.90;3.67;;;6.90;99.90;;;;;;4970016;28;20051;-79
2021/11/22 14:26:59;;;;;;;5.05;3.50;;;6.90;99.90;;;;;;4971079;28;20047;-80
2021/11/22 14:29:29;;;;;;;5.68;3.55;;;6.90;99.90;;;;;;4971037;28;20057;-81
2021/11/22 14:31:59;;;;;;;6.57;4.10;;;6.90;99.90;;;;;;4974237;28;20125;-81
2021/11/22 14:34:27;;;;;;;8.63;4.05;;;6.90;99.90;;;;;;4974097;28;20051;-78
2021/11/22 14:36:56;;;;;;;6.68;4.22;;;6.90;99.90;;;;;;4972804;28;20079;-80
2021/11/22 14:39:30;;;;;;;6.85;4.03;;;6.90;99.90;;;;;;4972742;28;20082;-80
2021/11/22 14:42:00;;;;;;;5.80;3.97;;;6.90;99.90;;;;;;4976440;28;20090;-80
2021/11/22 14:44:27;;;;;;;5.78;3.40;;;6.90;99.90;;;;;;4974558;28;20519;-79
2021/11/22 14:47:02;;;;;;;7.53;3.97;;;6.90;99.90;;;;;;4973754;28;20129;-79
2021/11/22 14:49:34;;;;;;;7.95;3.80;;;6.90;99.90;;;;;;4973261;28;20054;-80
2021/11/22 14:52:03;;;;;;;8.45;4.30;;;6.90;99.90;;;;;;4973929;28;20066;-80
2021/11/22 14:54:34;;;;;;;6.65;3.65;;;6.80;99.90;;;;;;4973114;28;20137;-80
2021/11/22 14:57:11;;;;;;;6.78;4.22;;;6.80;99.90;;;;;;4973462;28;20469;-80
2021/11/22 14:59:43;;;;;;;7.00;4.05;;;6.90;99.90;;;;;;4974393;28;20129;-79
2021/11/22 15:02:15;;;;;;;5.78;3.80;;;6.90;99.90;;;;;;4973047;28;20542;-78
2021/11/22 15:04:44;;;;;;;7.70;4.07;;;6.90;99.90;;;;;;4973720;28;20484;-81
2021/11/22 15:07:15;;;;;;;5.18;3.42;;;6.80;99.90;;;;;;4973129;28;20142;-81
2021/11/22 15:09:46;;;;;;;8.20;4.55;;;6.90;99.90;;;;;;4973153;28;20065;-79
2021/11/22 15:12:19;;;;;;;6.20;3.92;;;6.90;99.90;;;;;;4972610;28;20086;-81
2021/11/22 15:14:50;;;;;;;7.68;4.30;;;6.90;99.90;;;;;;4972768;28;20192;-81
2021/11/22 15:17:20;;;;;;;6.28;3.88;;;6.80;99.90;;;;;;4974142;28;20130;-79
2021/11/22 15:19:50;;;;;;;6.18;4.10;;;6.90;99.90;;;;;;4973159;28;20053;-80
2021/11/22 15:22:20;;;;;;;7.45;4.13;;;6.90;99.90;;;;;;4972586;28;20504;-77
2021/11/22 15:24:48;;;;;;;7.25;4.15;;;6.90;99.90;;;;;;4973314;28;20042;-81
2021/11/22 15:27:22;;;;;;;6.47;4.10;;;6.90;99.90;;;;;;4972622;28;20047;-80
2021/11/22 15:29:52;;;;;;;7.23;3.80;;;6.80;99.90;;;;;;4973117;28;20419;-81
2021/11/22 15:32:22;;;;;;;7.20;4.15;;;6.80;99.90;;;;;;4973253;28;20294;-81
2021/11/22 15:34:50;;;;;;;7.13;3.83;;;6.80;99.90;;;;;;4974390;28;20086;-80
2021/11/22 15:37:18;;;;;;;9.20;4.50;;;6.80;99.90;;;;;;4974889;28;20047;-80
2021/11/22 15:39:47;;;;;;;7.10;4.10;;;6.80;99.90;;;;;;4972489;28;20078;-81
2021/11/22 15:42:24;;;;;;;6.70;4.35;;;6.80;99.90;;;;;;4971759;28;20136;-79
2021/11/22 15:44:51;;;;;;;6.70;4.22;;;6.80;99.90;;;;;;4971871;28;20468;-79
2021/11/22 15:47:20;;;;;;;7.00;4.20;;;6.80;99.90;;;;;;4972346;28;20449;-78
2021/11/22 15:49:49;;;;;;;8.35;4.75;;;6.80;99.90;;;;;;4971996;28;20055;-80
2021/11/22 15:52:17;;;;;;;8.73;4.78;;;6.80;99.90;;;;;;4972528;28;20401;-80
2021/11/22 15:54:45;;;;;;;7.40;4.32;;;6.80;99.90;;;;;;4972983;28;20134;-78
2021/11/22 15:57:13;;;;;;;8.18;4.47;;;6.70;99.90;;;;;;4971530;28;20109;-80
2021/11/22 15:59:42;;;;;;;7.97;4.30;;;6.70;99.90;;;;;;4971768;28;20086;-81
2021/11/22 16:02:10;;;;;;;8.13;4.00;;;6.70;99.90;;;;;;4970335;28;20073;-79
2021/11/22 16:04:37;;;;;;;7.05;4.20;;;6.70;99.90;;;;;;4971554;28;20042;-80
2021/11/22 16:07:05;;;;;;;7.40;4.50;;;6.70;99.90;;;;;;4971923;28;20055;-80
2021/11/22 16:09:34;;;;;;;7.47;4.03;;;6.70;99.90;;;;;;4971720;28;20133;-81
2021/11/22 16:12:05;;;;;;;7.40;4.45;;;6.70;99.90;;;;;;4971055;28;20093;-79
2021/11/22 16:14:32;;;;;;;6.65;4.32;;;6.60;99.90;;;;;;4970506;28;20094;-82
2021/11/22 16:17:02;;;;;;;7.93;4.38;;;6.60;99.90;;;;;;4971535;28;20051;-82
2021/11/22 16:19:29;;;;;;;6.82;3.80;;;6.70;99.90;;;;;;4969740;28;20078;-81
2021/11/22 16:21:57;;;;;;;7.13;4.28;;;6.60;99.90;;;;;;4970191;28;20085;-80
2021/11/22 16:24:25;;;;;;;6.78;3.92;;;6.60;99.90;;;;;;4971762;28;20093;-80
2021/11/22 16:26:58;;;;;;;6.68;3.78;;;6.60;99.90;;;;;;4970999;28;20056;-80
2021/11/22 16:29:29;;;;;;;6.25;3.78;;;6.60;99.90;;;;;;4969788;28;20058;-79
2021/11/22 16:31:58;;;;;;;8.57;3.90;;;6.60;99.90;;;;;;4970614;28;20086;-80
2021/11/22 16:34:28;;;;;;;7.57;3.78;;;6.60;99.90;;;;;;4971348;28;20170;-80
2021/11/22 16:36:55;;;;;;;6.70;3.90;;;6.60;99.90;;;;;;4971928;28;20057;-80
2021/11/22 16:39:24;;;;;;;6.65;4.00;;;6.60;99.90;;;;;;4971876;28;20051;-81
2021/11/22 16:41:53;;;;;;;6.55;3.63;;;6.60;99.90;;;;;;4970572;28;20043;-81
2021/11/22 16:44:23;;;;;;;6.30;3.70;;;6.50;99.90;;;;;;4971356;28;20054;-78
2021/11/22 16:46:51;;;;;;;6.00;3.53;;;6.50;99.90;;;;;;4971515;28;20105;-80
2021/11/22 16:49:18;;;;;;;7.45;3.92;;;6.60;99.90;;;;;;4971728;28;20046;-81
2021/11/22 16:51:47;;;;;;;6.97;3.67;;;6.60;99.90;;;;;;4973267;28;20206;-81
2021/11/22 16:54:15;;;;;;;6.15;3.30;;;6.50;99.90;;;;;;4971876;28;20051;-82
2021/11/22 16:56:42;;;;;;;6.18;3.40;;;6.50;99.90;;;;;;4970501;28;20070;-79
2021/11/22 16:59:10;;;;;;;6.97;3.70;;;6.50;99.90;;;;;;4970177;28;20085;-79
2021/11/22 17:01:38;;;;;;;6.45;3.50;;;6.50;99.90;;;;;;4970400;28;20082;-79
2021/11/22 17:04:05;;;;;;;6.03;3.55;;;6.50;99.90;;;;;;4970296;28;20130;-80
2021/11/22 17:06:32;;;;;;;5.28;3.08;;;6.50;99.90;;;;;;4966451;28;20047;-79
2021/11/22 17:09:01;;;;;;;6.63;3.47;;;6.50;99.90;;;;;;4965733;28;20123;-80
2021/11/22 17:11:28;;;;;;;6.47;3.58;;;6.50;99.90;;;;;;4963700;28;20058;-81
2021/11/22 17:13:55;;;;;;;7.35;4.10;;;6.50;99.90;;;;;;4957064;28;20043;-80
2021/11/22 17:16:24;;;;;;;6.18;3.60;;;6.50;99.90;;;;;;4962343;28;20137;-81
2021/11/22 17:18:52;;;;;;;7.05;3.85;;;6.50;99.90;;;;;;4953798;28;20145;-81
2021/11/22 17:21:21;;;;;;;5.60;3.53;;;6.50;99.90;;;;;;4957959;28;20524;-81
2021/11/22 17:23:50;;;;;;;6.55;3.70;;;6.50;99.90;;;;;;4955974;28;20081;-81
2021/11/22 17:26:19;;;;;;;6.15;4.00;;;6.50;99.90;;;;;;4956274;28;20054;-81
2021/11/22 17:28:47;;;;;;;7.47;3.85;;;6.50;99.90;;;;;;4985179;28;20051;-80
2021/11/22 17:31:15;;;;;;;6.15;3.70;;;6.50;99.90;;;;;;4954445;28;20551;-80
2021/11/22 17:33:42;;;;;;;6.30;3.78;;;6.60;99.90;;;;;;4969812;28;20049;-80
2021/11/22 17:36:09;;;;;;;7.90;3.38;;;6.60;99.90;;;;;;4959296;28;20051;-80
2021/11/22 17:38:37;;;;;;;6.80;3.78;;;6.50;99.90;;;;;;4951146;28;20051;-80
2021/11/22 17:41:05;;;;;;;6.53;3.53;;;6.60;99.90;;;;;;4966923;28;20134;-80
2021/11/22 17:43:33;;;;;;;6.25;3.55;;;6.60;99.90;;;;;;4951367;28;20059;-81
2021/11/22 17:46:01;;;;;;;6.30;3.47;;;6.60;99.90;;;;;;4958395;28;20411;-81
2021/11/22 17:48:28;;;;;;;6.68;3.58;;;6.60;99.90;;;;;;4965324;28;20047;-80
2021/11/22 17:50:56;;;;;;;6.15;3.83;;;6.60;99.90;;;;;;4970341;28;20129;-82
2021/11/22 17:53:24;;;;;;;6.38;4.03;;;6.50;99.90;;;;;;4969399;28;20050;-80
2021/11/22 17:55:54;;;;;;;5.88;3.70;;;6.50;99.90;;;;;;4969947;28;20114;-79
2021/11/22 17:58:23;;;;;;;6.30;3.63;;;6.50;99.90;;;;;;4970657;28;20109;-81
2021/11/22 18:00:52;;;;;;;7.45;3.80;;;6.50;99.90;;;;;;4970071;28;20428;-81
2021/11/22 18:03:21;;;;;;;5.03;3.28;;;6.50;99.90;;;;;;4966006;28;20054;-81
2021/11/22 18:05:48;;;;;;;7.30;3.60;;;6.50;99.90;;;;;;4963720;28;20051;-80
2021/11/22 18:08:16;;;;;;;6.15;3.25;;;6.50;99.90;;;;;;4960408;28;20047;-81
2021/11/22 18:10:47;;;;;;;5.47;3.40;;;6.50;99.90;;;;;;4980266;28;20043;-82
2021/11/22 18:13:15;;;;;;;5.60;3.15;;;6.50;99.90;;;;;;4965973;28;20047;-80
2021/11/22 18:15:43;;;;;;;5.10;3.38;;;6.50;99.90;;;;;;4967947;28;20404;-80
2021/11/22 18:18:12;;;;;;;5.43;3.35;;;6.50;99.90;;;;;;4962352;28;20102;-82
2021/11/22 18:20:39;;;;;;;5.07;3.20;;;6.50;99.90;;;;;;4970811;28;20047;-81
2021/11/22 18:23:07;;;;;;;6.20;3.38;;;6.50;99.90;;;;;;4971654;28;20195;-82
2021/11/22 18:25:35;;;;;;;5.38;2.78;;;6.50;99.90;;;;;;4969201;28;20162;-82
2021/11/22 18:28:04;;;;;;;6.53;3.40;;;6.50;99.90;;;;;;4970254;28;20556;-81
2021/11/22 18:30:32;;;;;;;5.13;3.40;;;6.50;99.90;;;;;;4972136;28;20046;-81
2021/11/22 18:32:59;;;;;;;6.70;3.70;;;6.50;99.90;;;;;;4973532;28;20174;-81
2021/11/22 18:35:28;;;;;;;5.38;3.22;;;6.50;99.90;;;;;;4972982;28;20125;-79
2021/11/22 18:37:56;;;;;;;5.90;3.30;;;6.40;99.90;;;;;;4973227;28;20043;-84
2021/11/22 18:40:24;;;;;;;5.28;3.30;;;6.40;99.90;;;;;;4973011;28;20464;-80
2021/11/22 18:42:51;;;;;;;5.32;3.45;;;6.40;99.90;;;;;;4972753;28;20054;-82
2021/11/22 18:45:19;;;;;;;5.85;3.58;;;6.40;99.90;;;;;;4973050;28;20079;-80
2021/11/22 18:47:47;;;;;;;5.03;2.90;;;6.40;99.90;;;;;;4972054;28;20078;-80
2021/11/22 18:50:18;;;;;;;6.72;3.72;;;6.50;99.90;;;;;;4971453;28;20066;-78
2021/11/22 18:52:47;;;;;;;8.73;5.10;;;6.50;99.90;;;;;;4971544;28;20051;-79
2021/11/22 18:55:14;;;;;;;6.53;3.83;;;6.50;99.90;;;;;;4972248;28;20046;-81
2021/11/22 18:57:42;;;;;;;5.80;3.65;;;6.50;99.90;;;;;;4969871;28;20042;-80
2021/11/22 19:00:14;;;;;;;7.07;3.97;;;6.40;99.90;;;;;;4967306;28;20484;-81
2021/11/22 19:02:41;;;;;;;5.55;3.10;;;6.40;99.90;;;;;;4967416;28;20061;-82